createdAt,value
2023-04-21T00:01:19.268Z,8.57
2023-04-21T00:03:48.775Z,8.50
2023-04-21T00:06:22.302Z,7.30
2023-04-21T00:08:50.341Z,8.13
2023-04-21T00:11:18.494Z,8.30
2023-04-21T00:13:46.619Z,9.30
2023-04-21T00:16:14.653Z,8.57
2023-04-21T00:18:42.650Z,7.70
2023-04-21T00:21:12.010Z,8.30
2023-04-21T00:23:39.994Z,8.10
2023-04-21T00:26:07.984Z,7.87
2023-04-21T00:28:35.998Z,7.63
2023-04-21T00:31:03.992Z,6.97
2023-04-21T00:33:31.993Z,7.63
2023-04-21T00:36:00.090Z,7.33
2023-04-21T00:38:29.469Z,6.83
2023-04-21T00:40:57.436Z,7.43
2023-04-21T00:43:26.419Z,7.63
2023-04-21T00:45:54.421Z,7.50
2023-04-21T00:48:22.398Z,7.37
2023-04-21T00:50:50.451Z,6.87
2023-04-21T00:53:19.384Z,7.30
2023-04-21T00:55:48.794Z,7.60
2023-04-21T00:58:16.823Z,7.70
2023-04-21T01:00:44.941Z,7.43
2023-04-21T01:03:13.376Z,8.67
2023-04-21T01:05:45.538Z,7.60
2023-04-21T01:08:15.656Z,8.30
2023-04-21T01:10:43.844Z,8.60
2023-04-21T01:13:14.400Z,9.13
2023-04-21T01:15:42.374Z,8.87
2023-04-21T01:18:10.789Z,8.63
2023-04-21T01:20:38.983Z,8.27
2023-04-21T01:23:08.368Z,8.47
2023-04-21T01:25:37.974Z,8.47
2023-04-21T01:28:06.222Z,7.50
2023-04-21T01:30:34.191Z,8.37
2023-04-21T01:33:02.251Z,7.50
2023-04-21T01:35:30.497Z,7.67
2023-04-21T01:37:58.618Z,7.60
2023-04-21T01:40:28.030Z,7.40
2023-04-21T01:42:56.104Z,7.57
2023-04-21T01:45:24.146Z,7.17
2023-04-21T01:47:52.161Z,7.70
2023-04-21T01:50:20.178Z,7.27
2023-04-21T01:52:48.186Z,7.20
2023-04-21T01:55:16.364Z,7.40
2023-04-21T01:57:45.731Z,7.33
2023-04-21T02:00:14.762Z,6.50
2023-04-21T02:02:43.054Z,7.63
2023-04-21T02:05:11.223Z,7.87
2023-04-21T02:07:39.211Z,8.23
2023-04-21T02:10:09.323Z,7.83
2023-04-21T02:12:37.294Z,8.73
2023-04-21T02:15:08.330Z,8.40
2023-04-21T02:17:36.959Z,8.20
2023-04-21T02:20:05.516Z,8.97
2023-04-21T02:22:33.637Z,8.63
2023-04-21T02:25:01.603Z,8.90
2023-04-21T02:27:29.605Z,8.53
2023-04-21T02:29:57.571Z,8.63
2023-04-21T02:32:27.110Z,8.67
2023-04-21T02:34:55.134Z,8.53
2023-04-21T02:37:23.332Z,8.67
2023-04-21T02:39:52.021Z,9.80
2023-04-21T02:42:20.007Z,10.67
2023-04-21T02:44:48.000Z,10.70
2023-04-21T02:47:17.683Z,10.70
2023-04-21T02:49:47.046Z,10.77
2023-04-21T02:52:15.026Z,10.67
2023-04-21T02:54:43.002Z,10.20
2023-04-21T02:57:11.017Z,11.57
2023-04-21T02:59:39.021Z,11.83
2023-04-21T03:02:07.044Z,11.87
2023-04-21T03:04:35.314Z,11.97
2023-04-21T03:07:05.049Z,12.03
2023-04-21T03:09:33.218Z,12.17
2023-04-21T03:12:01.595Z,11.47
2023-04-21T03:14:29.567Z,12.50
2023-04-21T03:16:57.609Z,11.33
2023-04-21T03:19:25.708Z,11.53
2023-04-21T03:21:53.698Z,11.50
2023-04-21T03:24:23.054Z,11.67
2023-04-21T03:26:51.246Z,12.03
2023-04-21T03:29:19.408Z,11.50
2023-04-21T03:31:47.667Z,11.70
2023-04-21T03:34:15.773Z,12.67
2023-04-21T03:36:43.858Z,10.93
2023-04-21T03:39:19.746Z,12.40
2023-04-21T03:41:49.854Z,11.50
2023-04-21T03:44:17.833Z,11.87
2023-04-21T03:46:45.810Z,11.97
2023-04-21T03:49:13.853Z,12.97
2023-04-21T03:51:41.799Z,12.70
2023-04-21T03:54:09.789Z,11.83
2023-04-21T03:56:37.814Z,11.90
2023-04-21T03:59:07.349Z,12.10
2023-04-21T04:01:35.729Z,12.10
2023-04-21T04:04:04.056Z,11.80
2023-04-21T04:06:33.202Z,11.77
2023-04-21T04:09:02.693Z,11.17
2023-04-21T04:11:30.771Z,11.57
2023-04-21T04:13:58.785Z,11.90
2023-04-21T04:16:29.904Z,12.00
2023-04-21T04:18:58.012Z,11.97
2023-04-21T04:21:27.463Z,11.47
2023-04-21T04:23:59.040Z,10.80
2023-04-21T04:26:27.559Z,11.07
2023-04-21T04:29:00.409Z,11.70
2023-04-21T04:31:30.387Z,11.47
2023-04-21T04:33:58.689Z,12.07
2023-04-21T04:36:30.764Z,11.80
2023-04-21T04:38:59.487Z,12.07
2023-04-21T04:41:27.545Z,11.70
2023-04-21T04:44:00.779Z,11.23
2023-04-21T04:46:30.471Z,11.17
2023-04-21T04:48:58.479Z,12.03
2023-04-21T04:51:26.488Z,10.60
2023-04-21T04:53:55.623Z,10.57
2023-04-21T04:56:24.109Z,10.80
2023-04-21T04:58:52.086Z,11.10
2023-04-21T05:01:20.086Z,10.63
2023-04-21T05:03:49.570Z,11.33
2023-04-21T05:06:17.673Z,10.73
2023-04-21T05:08:45.838Z,11.27
2023-04-21T05:11:13.854Z,10.23
2023-04-21T05:13:44.363Z,10.33
2023-04-21T05:16:12.477Z,9.90
2023-04-21T05:18:40.668Z,10.17
2023-04-21T05:21:10.063Z,9.83
2023-04-21T05:23:38.051Z,9.63
2023-04-21T05:26:06.344Z,9.67
2023-04-21T05:28:35.762Z,9.33
2023-04-21T05:31:03.758Z,9.37
2023-04-21T05:33:32.248Z,9.40
2023-04-21T05:36:00.335Z,9.37
2023-04-21T05:38:29.694Z,9.30
2023-04-21T05:40:57.669Z,9.10
2023-04-21T05:43:25.670Z,9.20
2023-04-21T05:45:53.792Z,9.20
2023-04-21T05:48:22.204Z,9.20
2023-04-21T05:50:50.225Z,9.67
2023-04-21T05:53:18.528Z,9.10
2023-04-21T05:55:47.982Z,9.67
2023-04-21T05:58:16.003Z,9.67
2023-04-21T06:00:43.998Z,9.00
2023-04-21T06:03:12.506Z,9.00
2023-04-21T06:05:40.651Z,9.13
2023-04-21T06:08:08.794Z,8.03
2023-04-21T06:10:36.804Z,8.00
2023-04-21T06:13:06.176Z,8.83
2023-04-21T06:15:34.301Z,8.63
2023-04-21T06:18:02.299Z,8.90
2023-04-21T06:20:30.344Z,10.20
2023-04-21T06:22:58.543Z,8.60
2023-04-21T06:25:27.885Z,8.77
2023-04-21T06:27:58.236Z,8.47
2023-04-21T06:30:27.675Z,8.70
2023-04-21T06:32:55.689Z,8.63
2023-04-21T06:35:23.667Z,7.90
2023-04-21T06:37:51.663Z,7.87
2023-04-21T06:40:19.790Z,9.10
2023-04-21T06:42:48.003Z,8.50
2023-04-21T06:45:16.293Z,8.17
2023-04-21T06:47:46.804Z,7.63
2023-04-21T06:50:17.168Z,7.47
2023-04-21T06:52:46.163Z,7.00
2023-04-21T06:55:14.309Z,6.87
2023-04-21T06:57:42.768Z,7.60
2023-04-21T07:00:11.852Z,6.97
2023-04-21T07:02:40.024Z,7.13
2023-04-21T07:05:09.814Z,6.50
2023-04-21T07:07:37.782Z,7.30
2023-04-21T07:10:06.641Z,6.50
2023-04-21T07:12:36.568Z,6.77
2023-04-21T07:15:05.522Z,6.93
2023-04-21T07:17:35.926Z,6.60
2023-04-21T07:20:03.939Z,6.67
2023-04-21T07:22:34.568Z,6.63
2023-04-21T07:25:06.192Z,6.43
2023-04-21T07:27:35.770Z,5.80
2023-04-21T07:30:03.984Z,6.03
2023-04-21T07:32:32.353Z,5.77
2023-04-21T07:35:01.852Z,5.70
2023-04-21T07:37:30.062Z,5.70
2023-04-21T07:39:59.450Z,5.53
2023-04-21T07:42:28.048Z,5.70
2023-04-21T07:44:57.459Z,6.70
2023-04-21T07:47:25.565Z,5.67
2023-04-21T07:49:55.682Z,5.83
2023-04-21T07:52:23.859Z,5.47
2023-04-21T07:54:52.041Z,5.97
2023-04-21T07:57:21.552Z,6.13
2023-04-21T07:59:49.753Z,5.63
2023-04-21T08:02:17.789Z,6.27
2023-04-21T08:04:45.865Z,6.27
2023-04-21T08:07:15.899Z,6.45
2023-04-21T08:09:44.041Z,6.37
2023-04-21T08:12:12.015Z,6.40
2023-04-21T08:14:41.531Z,6.22
2023-04-21T08:17:09.539Z,6.10
2023-04-21T08:19:37.681Z,6.00
2023-04-21T08:22:05.690Z,6.20
2023-04-21T08:24:35.734Z,5.95
2023-04-21T08:27:03.767Z,6.20
2023-04-21T08:29:32.186Z,6.75
2023-04-21T08:32:01.579Z,6.18
2023-04-21T08:34:29.778Z,6.07
2023-04-21T08:36:57.918Z,5.53
2023-04-21T08:39:26.825Z,5.40
2023-04-21T08:41:56.394Z,5.40
2023-04-21T08:44:24.481Z,5.43
2023-04-21T08:46:52.589Z,5.65
2023-04-21T08:49:22.987Z,6.45
2023-04-21T08:51:51.347Z,6.30
2023-04-21T08:54:19.368Z,5.80
2023-04-21T08:56:49.198Z,6.55
2023-04-21T08:59:17.179Z,6.70
2023-04-21T09:02:16.319Z,6.07
2023-04-21T09:04:48.366Z,5.90
2023-04-21T09:07:33.202Z,6.40
2023-04-21T09:10:01.757Z,6.78
2023-04-21T09:12:31.063Z,6.38
2023-04-21T09:15:00.140Z,7.10
2023-04-21T09:17:32.680Z,6.60
2023-04-21T09:20:15.817Z,5.72
2023-04-21T09:22:43.881Z,6.82
2023-04-21T09:25:16.588Z,5.95
2023-04-21T09:27:44.847Z,6.03
2023-04-21T09:30:13.382Z,6.88
2023-04-21T09:32:42.410Z,7.50
2023-04-21T09:35:12.766Z,6.70
2023-04-21T09:37:44.138Z,7.47
2023-04-21T09:40:15.420Z,7.63
2023-04-21T09:42:44.865Z,6.78
2023-04-21T09:47:50.376Z,6.32
2023-04-21T09:50:41.879Z,6.13
2023-04-21T09:53:15.357Z,6.45
2023-04-21T09:55:44.155Z,6.28
2023-04-21T09:58:15.499Z,5.50
2023-04-21T10:00:44.863Z,4.45
2023-04-21T10:03:14.140Z,4.63
2023-04-21T10:05:44.194Z,5.18
2023-04-21T10:08:13.446Z,5.20
2023-04-21T10:10:42.387Z,4.38
2023-04-21T10:13:16.566Z,4.38
2023-04-21T10:15:44.649Z,3.92
2023-04-21T10:18:14.373Z,4.45
2023-04-21T10:20:57.303Z,4.03
2023-04-21T10:23:32.879Z,3.92
2023-04-21T10:26:10.109Z,3.47
2023-04-21T10:28:42.272Z,3.67
2023-04-21T10:31:19.203Z,3.83
2023-04-21T10:34:18.390Z,3.03
2023-04-21T10:37:15.501Z,3.67
2023-04-21T10:39:57.326Z,3.53
2023-04-21T10:42:36.725Z,3.45
2023-04-21T10:45:14.412Z,3.15
2023-04-21T10:47:45.184Z,3.10
2023-04-21T10:50:16.453Z,3.63
2023-04-21T10:53:08.459Z,2.83
2023-04-21T10:55:36.869Z,3.57
2023-04-21T10:58:06.459Z,3.33
2023-04-21T11:00:35.830Z,3.25
2023-04-21T11:03:05.848Z,3.00
2023-04-21T11:05:38.494Z,3.43
2023-04-21T11:08:11.259Z,3.80
2023-04-21T11:10:57.530Z,3.33
2023-04-21T11:13:33.625Z,3.70
2023-04-21T11:16:07.333Z,3.73
2023-04-21T11:18:39.142Z,3.17
2023-04-21T11:21:20.920Z,3.67
2023-04-21T11:23:55.064Z,3.27
2023-04-21T11:26:33.465Z,3.50
2023-04-21T11:29:05.975Z,3.20
2023-04-21T11:31:34.084Z,3.10
2023-04-21T11:34:05.115Z,3.47
2023-04-21T11:36:34.239Z,3.73
2023-04-21T11:39:10.020Z,3.23
2023-04-21T11:41:40.129Z,3.07
2023-04-21T11:44:08.215Z,3.10
2023-04-21T11:46:37.767Z,2.87
2023-04-21T11:49:07.462Z,3.07
2023-04-21T11:51:36.746Z,3.33
2023-04-21T11:54:10.219Z,3.00
2023-04-21T11:56:39.496Z,3.30
2023-04-21T11:59:10.863Z,3.05
2023-04-21T12:01:44.580Z,2.70
2023-04-21T12:04:17.291Z,2.97
2023-04-21T12:06:46.182Z,2.70
2023-04-21T12:09:20.947Z,2.97
2023-04-21T12:11:51.080Z,3.15
2023-04-21T12:14:20.187Z,2.50
2023-04-21T12:16:51.254Z,3.03
2023-04-21T12:19:27.038Z,2.50
2023-04-21T12:21:58.772Z,2.85
2023-04-21T12:24:28.578Z,2.65
2023-04-21T12:26:56.636Z,2.38
2023-04-21T12:29:26.751Z,2.40
2023-04-21T12:31:54.818Z,2.80
2023-04-21T12:34:22.860Z,2.90
2023-04-21T12:36:51.084Z,2.13
2023-04-21T12:39:19.524Z,2.58
2023-04-21T12:41:49.214Z,2.40
2023-04-21T12:44:17.253Z,2.70
2023-04-21T12:46:45.734Z,2.67
2023-04-21T12:49:14.610Z,2.50
2023-04-21T12:51:43.174Z,2.75
2023-04-21T12:54:11.472Z,12.02
2023-04-21T12:56:40.686Z,8.20
2023-04-21T12:59:10.940Z,3.70
2023-04-21T13:01:39.943Z,2.92
2023-04-21T13:04:09.439Z,2.60
2023-04-21T13:06:39.892Z,2.67
2023-04-21T13:09:08.378Z,2.80
2023-04-21T13:11:39.815Z,6.65
2023-04-21T13:14:09.615Z,3.20
2023-04-21T13:16:37.680Z,3.53
2023-04-21T13:19:08.342Z,6.40
2023-04-21T13:21:39.439Z,8.00
2023-04-21T13:24:11.271Z,4.13
2023-04-21T13:26:41.512Z,3.10
2023-04-21T13:29:10.967Z,3.07
2023-04-21T13:31:39.085Z,3.03
2023-04-21T13:34:09.093Z,7.10
2023-04-21T13:36:37.134Z,25.43
2023-04-21T13:39:05.933Z,7.23
2023-04-21T13:41:33.925Z,3.93
2023-04-21T13:44:01.955Z,3.10
2023-04-21T13:46:31.540Z,2.93
2023-04-21T13:48:59.790Z,2.90
2023-04-21T13:51:27.829Z,2.80
2023-04-21T13:53:58.948Z,4.73
2023-04-21T13:56:27.036Z,6.90
2023-04-21T13:58:55.918Z,3.33
2023-04-21T14:01:23.971Z,8.50
2023-04-21T14:03:54.005Z,3.73
2023-04-21T14:06:24.233Z,3.40
2023-04-21T14:08:52.661Z,2.77
2023-04-21T14:11:20.780Z,2.83
2023-04-21T14:14:07.573Z,3.60
2023-04-21T14:16:37.113Z,5.77
2023-04-21T14:19:07.052Z,3.47
2023-04-21T14:21:35.104Z,3.00
2023-04-21T14:24:03.390Z,2.50
2023-04-21T14:26:32.118Z,2.90
2023-04-21T14:29:01.462Z,3.80
2023-04-21T14:31:29.798Z,4.70
2023-04-21T14:33:57.890Z,4.03
2023-04-21T14:36:27.976Z,7.37
2023-04-21T14:38:56.270Z,3.60
2023-04-21T14:41:24.568Z,2.90
2023-04-21T14:43:53.847Z,2.33
2023-04-21T14:46:22.044Z,2.50
2023-04-21T14:48:50.537Z,2.10
2023-04-21T14:51:18.809Z,3.07
2023-04-21T14:53:48.250Z,4.03
2023-04-21T14:56:18.804Z,3.03
2023-04-21T14:58:49.384Z,3.10
2023-04-21T15:01:17.431Z,2.90
2023-04-21T15:03:46.064Z,2.40
2023-04-21T15:06:16.112Z,2.77
2023-04-21T15:08:44.182Z,3.43
2023-04-21T15:11:15.760Z,4.07
2023-04-21T15:13:43.754Z,3.40
2023-04-21T15:16:11.823Z,5.27
2023-04-21T15:18:39.871Z,3.00
2023-04-21T15:21:08.078Z,2.60
2023-04-21T15:23:36.375Z,2.77
2023-04-21T15:26:04.644Z,2.70
2023-04-21T15:28:35.497Z,4.03
2023-04-21T15:31:03.598Z,4.70
2023-04-21T15:33:31.609Z,3.63
2023-04-21T15:35:59.595Z,3.07
2023-04-21T15:38:27.807Z,2.83
2023-04-21T15:41:03.980Z,2.80
2023-04-21T15:43:33.968Z,2.80
2023-04-21T15:46:02.310Z,2.53
2023-04-21T15:48:30.871Z,2.47
2023-04-21T15:50:59.213Z,2.57
2023-04-21T15:53:30.029Z,2.73
2023-04-21T15:55:58.532Z,3.00
2023-04-21T15:58:29.111Z,3.43
2023-04-21T16:00:58.675Z,3.07
2023-04-21T16:03:27.579Z,3.30
2023-04-21T16:05:58.754Z,3.67
2023-04-21T16:08:32.973Z,4.37
2023-04-21T16:11:01.244Z,3.93
2023-04-21T16:13:29.936Z,3.30
2023-04-21T16:15:59.455Z,4.37
2023-04-21T16:18:27.654Z,4.07
2023-04-21T16:20:58.723Z,5.80
2023-04-21T16:23:27.795Z,4.20
2023-04-21T16:25:56.461Z,4.17
2023-04-21T16:28:24.620Z,3.23
2023-04-21T16:30:52.675Z,3.93
2023-04-21T16:33:24.852Z,5.70
2023-04-21T16:35:54.247Z,3.77
2023-04-21T16:38:24.442Z,3.40
2023-04-21T16:40:52.524Z,3.53
2023-04-21T16:43:20.625Z,3.70
2023-04-21T16:45:48.674Z,2.97
2023-04-21T16:48:16.866Z,3.10
2023-04-21T16:50:47.717Z,3.13
2023-04-21T16:53:18.291Z,3.50
2023-04-21T16:55:50.003Z,2.87
2023-04-21T16:58:18.050Z,2.90
2023-04-21T17:00:46.067Z,4.00
2023-04-21T17:03:14.269Z,3.53
2023-04-21T17:05:42.402Z,3.97
2023-04-21T17:08:11.859Z,3.57
2023-04-21T17:10:39.839Z,3.50
2023-04-21T17:13:07.840Z,6.07
2023-04-21T17:15:37.481Z,3.87
2023-04-21T17:18:08.317Z,4.43
2023-04-21T17:20:36.748Z,4.10
2023-04-21T17:23:04.758Z,4.30
2023-04-21T17:25:34.174Z,3.80
2023-04-21T17:28:02.241Z,4.00
2023-04-21T17:30:31.342Z,3.53
2023-04-21T17:33:12.709Z,3.60
2023-04-21T17:36:00.043Z,5.57
2023-04-21T17:38:32.075Z,8.03
2023-04-21T17:41:01.957Z,7.27
2023-04-21T17:43:30.314Z,6.97
2023-04-21T17:45:58.394Z,7.23
2023-04-21T17:48:26.858Z,12.77
2023-04-21T17:50:55.103Z,20.33
2023-04-21T17:53:23.120Z,26.53
2023-04-21T17:55:51.482Z,18.20
2023-04-21T17:58:20.942Z,13.87
2023-04-21T18:00:49.184Z,12.40
2023-04-21T18:03:17.967Z,10.57
2023-04-21T18:05:47.623Z,10.47
2023-04-21T18:08:18.105Z,10.73
2023-04-21T18:10:46.120Z,8.93
2023-04-21T18:13:16.514Z,9.13
2023-04-21T18:15:48.767Z,8.50
2023-04-21T18:18:16.804Z,8.53
2023-04-21T18:20:45.156Z,8.37
2023-04-21T18:23:13.199Z,7.47
2023-04-21T18:25:42.907Z,7.07
2023-04-21T18:28:12.887Z,7.47
2023-04-21T18:30:41.570Z,9.10
2023-04-21T18:33:11.536Z,8.17
2023-04-21T18:35:39.922Z,8.67
2023-04-21T18:38:10.370Z,7.90
2023-04-21T18:40:41.890Z,8.57
2023-04-21T18:43:10.986Z,7.70
2023-04-21T18:45:39.162Z,7.13
2023-04-21T18:48:07.408Z,7.43
2023-04-21T18:50:39.924Z,8.70
2023-04-21T18:53:09.198Z,9.10
2023-04-21T18:55:37.730Z,9.17
2023-04-21T18:58:05.978Z,8.67
2023-04-21T19:00:37.277Z,9.23
2023-04-21T19:03:06.382Z,8.83
2023-04-21T19:05:40.537Z,9.67
2023-04-21T19:08:12.700Z,8.80
2023-04-21T19:10:40.757Z,9.50
2023-04-21T19:13:08.800Z,9.80
2023-04-21T19:15:39.218Z,9.73
2023-04-21T19:18:07.523Z,10.13
2023-04-21T19:20:37.558Z,9.57
2023-04-21T19:23:05.786Z,10.07
2023-04-21T19:25:34.812Z,9.50
2023-04-21T19:28:06.492Z,9.43
2023-04-21T19:30:34.708Z,9.57
2023-04-21T19:33:02.822Z,8.63
2023-04-21T19:35:30.943Z,9.40
2023-04-21T19:38:00.626Z,8.90
2023-04-21T19:40:29.168Z,10.47
2023-04-21T19:42:58.587Z,11.53
2023-04-21T19:45:29.417Z,12.87
2023-04-21T19:47:57.487Z,12.47
2023-04-21T19:50:25.570Z,13.20
2023-04-21T19:52:53.696Z,12.37
2023-04-21T19:55:23.390Z,11.63
2023-04-21T19:57:51.794Z,12.13
2023-04-21T20:00:19.960Z,11.43
2023-04-21T20:02:52.691Z,10.43
2023-04-21T20:05:21.325Z,9.60
2023-04-21T20:07:51.836Z,9.10
2023-04-21T20:10:19.964Z,9.80
2023-04-21T20:12:49.435Z,9.83
2023-04-21T20:15:17.589Z,9.53
2023-04-21T20:17:47.546Z,8.83
2023-04-21T20:20:18.868Z,8.97
2023-04-21T20:22:47.965Z,9.40
2023-04-21T20:25:16.644Z,10.00
2023-04-21T20:27:44.701Z,10.03
2023-04-21T20:30:14.628Z,10.03
2023-04-21T20:32:48.521Z,9.87
2023-04-21T20:35:19.142Z,9.90
2023-04-21T20:37:48.872Z,10.00
2023-04-21T20:40:18.731Z,9.93
2023-04-21T20:42:47.217Z,9.97
2023-04-21T20:45:17.310Z,10.97
2023-04-21T20:47:45.464Z,10.10
2023-04-21T20:50:13.500Z,9.33
2023-04-21T20:52:41.521Z,9.83
2023-04-21T20:55:10.218Z,9.47
2023-04-21T20:57:38.577Z,11.10
2023-04-21T21:00:09.729Z,12.67
2023-04-21T21:02:41.173Z,13.77
2023-04-21T21:05:09.824Z,16.97
2023-04-21T21:07:37.897Z,18.43
2023-04-21T21:10:10.796Z,20.27
2023-04-21T21:12:39.430Z,19.67
2023-04-21T21:15:08.753Z,18.47
2023-04-21T21:17:37.147Z,17.47
2023-04-21T21:20:10.400Z,17.13
2023-04-21T21:22:38.444Z,15.60
2023-04-21T21:25:07.378Z,14.67
2023-04-21T21:27:35.644Z,14.97
2023-04-21T21:30:04.195Z,14.03
2023-04-21T21:32:32.254Z,13.27
2023-04-21T21:35:00.245Z,12.93
2023-04-21T21:37:29.970Z,12.93
2023-04-21T21:39:58.009Z,13.20
2023-04-21T21:42:26.035Z,13.03
2023-04-21T21:44:54.006Z,13.13
2023-04-21T21:47:22.007Z,12.83
2023-04-21T21:49:57.300Z,12.93
2023-04-21T21:52:28.201Z,13.17
2023-04-21T21:54:58.461Z,12.50
2023-04-21T21:57:26.777Z,12.63
2023-04-21T21:59:56.727Z,11.80
2023-04-21T22:02:25.924Z,12.03
2023-04-21T22:04:54.662Z,13.30
2023-04-21T22:07:24.993Z,12.27
2023-04-21T22:09:53.092Z,11.77
2023-04-21T22:12:22.444Z,12.13
2023-04-21T22:14:50.501Z,12.17
2023-04-21T22:17:19.276Z,11.87
2023-04-21T22:19:47.332Z,11.50
2023-04-21T22:22:15.314Z,12.20
2023-04-21T22:24:43.303Z,11.70
2023-04-21T22:27:11.376Z,12.07
2023-04-21T22:29:41.079Z,11.73
2023-04-21T22:32:09.903Z,12.10
2023-04-21T22:34:37.970Z,11.73
2023-04-21T22:37:05.992Z,12.83
2023-04-21T22:39:35.272Z,12.90
2023-04-21T22:42:03.317Z,13.93
2023-04-21T22:44:31.322Z,13.77
2023-04-21T22:47:01.099Z,13.60
2023-04-21T22:49:29.173Z,13.00
2023-04-21T22:51:57.490Z,12.23
2023-04-21T22:54:25.532Z,12.13
2023-04-21T22:56:59.709Z,11.37
2023-04-21T22:59:27.764Z,11.10
2023-04-21T23:01:56.430Z,11.03
2023-04-21T23:04:26.012Z,10.80
2023-04-21T23:06:54.178Z,10.07
2023-04-21T23:09:22.451Z,10.97
2023-04-21T23:11:50.546Z,10.27
2023-04-21T23:14:18.523Z,10.30
2023-04-21T23:16:47.126Z,10.07
2023-04-21T23:19:15.195Z,11.37
2023-04-21T23:21:46.455Z,11.37
2023-04-21T23:24:14.526Z,10.60
2023-04-21T23:26:42.534Z,10.77
2023-04-21T23:29:10.518Z,10.83
2023-04-21T23:31:38.906Z,11.83
2023-04-21T23:34:07.135Z,11.63
2023-04-21T23:36:35.709Z,11.93
2023-04-21T23:39:05.218Z,10.90
2023-04-21T23:41:33.342Z,10.20
2023-04-21T23:44:03.609Z,9.67
2023-04-21T23:46:31.816Z,10.17
2023-04-21T23:48:59.853Z,10.30
2023-04-21T23:51:28.225Z,10.43
2023-04-21T23:53:59.321Z,9.83
2023-04-21T23:56:28.913Z,10.00
2023-04-21T23:58:56.911Z,9.07
